sensor_id;sensor_type;location;lat;lon;timestamp;P1;durP1;ratioP1;P2;durP2;ratioP2
42754;SDS011;28407;51.830;5.684;2023-02-23T00:01:50;35.83;;;22.80;;
42754;SDS011;28407;51.830;5.684;2023-02-23T00:03:52;36.58;;;23.33;;
42754;SDS011;28407;51.830;5.684;2023-02-23T00:05:54;35.22;;;22.50;;
42754;SDS011;28407;51.830;5.684;2023-02-23T00:07:54;39.83;;;24.35;;
42754;SDS011;28407;51.830;5.684;2023-02-23T00:09:55;34.80;;;22.58;;
42754;SDS011;28407;51.830;5.684;2023-02-23T00:11:56;37.97;;;23.27;;
42754;SDS011;28407;51.830;5.684;2023-02-23T00:13:57;37.53;;;23.55;;
42754;SDS011;28407;51.830;5.684;2023-02-23T00:15:57;38.42;;;22.95;;
42754;SDS011;28407;51.830;5.684;2023-02-23T00:17:58;37.47;;;22.65;;
42754;SDS011;28407;51.830;5.684;2023-02-23T00:19:58;35.13;;;23.13;;
42754;SDS011;28407;51.830;5.684;2023-02-23T00:22:00;41.42;;;25.25;;
42754;SDS011;28407;51.830;5.684;2023-02-23T00:24:03;41.97;;;25.77;;
42754;SDS011;28407;51.830;5.684;2023-02-23T00:26:05;36.38;;;23.85;;
42754;SDS011;28407;51.830;5.684;2023-02-23T00:28:06;36.42;;;23.73;;
42754;SDS011;28407;51.830;5.684;2023-02-23T00:30:07;37.17;;;22.45;;
42754;SDS011;28407;51.830;5.684;2023-02-23T00:32:08;37.90;;;24.73;;
42754;SDS011;28407;51.830;5.684;2023-02-23T00:34:09;36.50;;;23.88;;
42754;SDS011;28407;51.830;5.684;2023-02-23T00:38:13;38.15;;;22.27;;
42754;SDS011;28407;51.830;5.684;2023-02-23T00:40:14;34.53;;;23.27;;
42754;SDS011;28407;51.830;5.684;2023-02-23T00:42:16;35.85;;;22.40;;
42754;SDS011;28407;51.830;5.684;2023-02-23T00:44:16;32.88;;;22.45;;
42754;SDS011;28407;51.830;5.684;2023-02-23T00:46:18;32.20;;;21.83;;
42754;SDS011;28407;51.830;5.684;2023-02-23T00:48:20;38.08;;;23.60;;
42754;SDS011;28407;51.830;5.684;2023-02-23T00:50:21;35.55;;;22.75;;
42754;SDS011;28407;51.830;5.684;2023-02-23T00:52:22;35.07;;;22.93;;
42754;SDS011;28407;51.830;5.684;2023-02-23T00:54:22;36.33;;;22.00;;
42754;SDS011;28407;51.830;5.684;2023-02-23T00:56:23;34.83;;;22.30;;
42754;SDS011;28407;51.830;5.684;2023-02-23T00:58:25;36.47;;;22.03;;
42754;SDS011;28407;51.830;5.684;2023-02-23T01:00:26;33.70;;;21.83;;
42754;SDS011;28407;51.830;5.684;2023-02-23T01:02:28;35.67;;;23.40;;
42754;SDS011;28407;51.830;5.684;2023-02-23T01:04:31;31.42;;;21.13;;
42754;SDS011;28407;51.830;5.684;2023-02-23T01:06:32;35.35;;;23.77;;
42754;SDS011;28407;51.830;5.684;2023-02-23T01:08:34;34.37;;;21.70;;
42754;SDS011;28407;51.830;5.684;2023-02-23T01:10:40;33.92;;;21.73;;
42754;SDS011;28407;51.830;5.684;2023-02-23T01:12:51;33.00;;;21.42;;
42754;SDS011;28407;51.830;5.684;2023-02-23T01:14:52;31.50;;;21.87;;
42754;SDS011;28407;51.830;5.684;2023-02-23T01:16:53;34.88;;;21.58;;
42754;SDS011;28407;51.830;5.684;2023-02-23T01:18:55;34.13;;;22.30;;
42754;SDS011;28407;51.830;5.684;2023-02-23T01:21:00;33.28;;;22.02;;
42754;SDS011;28407;51.830;5.684;2023-02-23T01:23:01;31.17;;;21.85;;
42754;SDS011;28407;51.830;5.684;2023-02-23T01:25:03;35.63;;;23.25;;
42754;SDS011;28407;51.830;5.684;2023-02-23T01:27:06;35.88;;;21.52;;
42754;SDS011;28407;51.830;5.684;2023-02-23T01:29:11;31.48;;;20.40;;
42754;SDS011;28407;51.830;5.684;2023-02-23T01:31:13;34.15;;;21.30;;
42754;SDS011;28407;51.830;5.684;2023-02-23T01:33:14;32.08;;;21.05;;
42754;SDS011;28407;51.830;5.684;2023-02-23T01:35:15;34.72;;;23.13;;
42754;SDS011;28407;51.830;5.684;2023-02-23T01:37:16;36.95;;;22.88;;
42754;SDS011;28407;51.830;5.684;2023-02-23T01:39:17;34.53;;;22.98;;
42754;SDS011;28407;51.830;5.684;2023-02-23T01:41:19;32.75;;;20.65;;
42754;SDS011;28407;51.830;5.684;2023-02-23T01:43:20;32.97;;;21.77;;
42754;SDS011;28407;51.830;5.684;2023-02-23T01:45:29;36.67;;;22.02;;
42754;SDS011;28407;51.830;5.684;2023-02-23T01:47:34;32.30;;;21.08;;
42754;SDS011;28407;51.830;5.684;2023-02-23T01:49:34;37.38;;;21.60;;
42754;SDS011;28407;51.830;5.684;2023-02-23T01:51:42;34.20;;;22.42;;
42754;SDS011;28407;51.830;5.684;2023-02-23T01:54:03;34.75;;;22.95;;
42754;SDS011;28407;51.830;5.684;2023-02-23T01:56:16;34.92;;;22.95;;
42754;SDS011;28407;51.830;5.684;2023-02-23T01:58:20;41.00;;;23.63;;
42754;SDS011;28407;51.830;5.684;2023-02-23T02:00:23;31.52;;;19.63;;
42754;SDS011;28407;51.830;5.684;2023-02-23T02:02:26;33.47;;;21.13;;
42754;SDS011;28407;51.830;5.684;2023-02-23T02:04:36;38.92;;;22.88;;
42754;SDS011;28407;51.830;5.684;2023-02-23T02:06:44;36.50;;;23.60;;
42754;SDS011;28407;51.830;5.684;2023-02-23T02:08:48;32.97;;;21.13;;
42754;SDS011;28407;51.830;5.684;2023-02-23T02:10:53;34.72;;;22.00;;
42754;SDS011;28407;51.830;5.684;2023-02-23T02:12:57;34.15;;;22.15;;
42754;SDS011;28407;51.830;5.684;2023-02-23T02:15:00;34.58;;;22.95;;
42754;SDS011;28407;51.830;5.684;2023-02-23T02:17:22;35.25;;;21.83;;
42754;SDS011;28407;51.830;5.684;2023-02-23T02:22:02;35.22;;;21.60;;
42754;SDS011;28407;51.830;5.684;2023-02-23T02:39:10;32.67;;;20.55;;
42754;SDS011;28407;51.830;5.684;2023-02-23T02:41:24;33.70;;;21.83;;
42754;SDS011;28407;51.830;5.684;2023-02-23T02:46:04;29.33;;;20.08;;
42754;SDS011;28407;51.830;5.684;2023-02-23T02:50:53;36.22;;;21.10;;
42754;SDS011;28407;51.830;5.684;2023-02-23T02:53:02;34.53;;;22.50;;
42754;SDS011;28407;51.830;5.684;2023-02-23T02:55:13;36.58;;;22.40;;
42754;SDS011;28407;51.830;5.684;2023-02-23T02:57:18;36.72;;;22.20;;
42754;SDS011;28407;51.830;5.684;2023-02-23T02:59:23;33.67;;;21.55;;
42754;SDS011;28407;51.830;5.684;2023-02-23T03:01:42;35.85;;;22.95;;
42754;SDS011;28407;51.830;5.684;2023-02-23T03:04:18;37.38;;;23.35;;
42754;SDS011;28407;51.830;5.684;2023-02-23T03:09:14;34.70;;;22.73;;
42754;SDS011;28407;51.830;5.684;2023-02-23T03:12:04;35.10;;;21.90;;
42754;SDS011;28407;51.830;5.684;2023-02-23T03:15:03;32.30;;;20.15;;
42754;SDS011;28407;51.830;5.684;2023-02-23T03:17:43;33.03;;;22.75;;
42754;SDS011;28407;51.830;5.684;2023-02-23T03:20:22;32.67;;;21.55;;
42754;SDS011;28407;51.830;5.684;2023-02-23T03:22:52;31.80;;;20.73;;
42754;SDS011;28407;51.830;5.684;2023-02-23T03:25:26;31.30;;;20.63;;
42754;SDS011;28407;51.830;5.684;2023-02-23T03:27:53;33.90;;;21.70;;
42754;SDS011;28407;51.830;5.684;2023-02-23T03:30:34;32.75;;;21.48;;
42754;SDS011;28407;51.830;5.684;2023-02-23T03:32:55;33.10;;;21.65;;
42754;SDS011;28407;51.830;5.684;2023-02-23T03:37:46;34.40;;;22.20;;
42754;SDS011;28407;51.830;5.684;2023-02-23T03:40:12;37.55;;;22.33;;
42754;SDS011;28407;51.830;5.684;2023-02-23T03:42:36;36.33;;;21.25;;
42754;SDS011;28407;51.830;5.684;2023-02-23T03:45:00;32.45;;;22.70;;
42754;SDS011;28407;51.830;5.684;2023-02-23T03:47:24;35.58;;;22.88;;
42754;SDS011;28407;51.830;5.684;2023-02-23T03:49:47;36.53;;;22.08;;
42754;SDS011;28407;51.830;5.684;2023-02-23T03:52:09;31.20;;;19.48;;
42754;SDS011;28407;51.830;5.684;2023-02-23T03:54:34;30.77;;;21.35;;
42754;SDS011;28407;51.830;5.684;2023-02-23T03:56:58;35.42;;;22.65;;
42754;SDS011;28407;51.830;5.684;2023-02-23T03:59:22;28.38;;;19.10;;
42754;SDS011;28407;51.830;5.684;2023-02-23T04:01:47;34.75;;;21.27;;
42754;SDS011;28407;51.830;5.684;2023-02-23T04:04:09;28.90;;;20.13;;
42754;SDS011;28407;51.830;5.684;2023-02-23T04:06:30;34.33;;;20.65;;
42754;SDS011;28407;51.830;5.684;2023-02-23T04:08:53;35.05;;;21.55;;
42754;SDS011;28407;51.830;5.684;2023-02-23T04:14:11;34.17;;;23.23;;
42754;SDS011;28407;51.830;5.684;2023-02-23T04:16:20;34.47;;;21.73;;
42754;SDS011;28407;51.830;5.684;2023-02-23T04:18:22;34.85;;;22.83;;
42754;SDS011;28407;51.830;5.684;2023-02-23T04:20:34;32.45;;;21.27;;
42754;SDS011;28407;51.830;5.684;2023-02-23T04:22:35;35.05;;;22.17;;
42754;SDS011;28407;51.830;5.684;2023-02-23T04:24:35;35.03;;;23.45;;
42754;SDS011;28407;51.830;5.684;2023-02-23T04:26:36;33.38;;;21.08;;
42754;SDS011;28407;51.830;5.684;2023-02-23T04:28:37;32.67;;;21.88;;
42754;SDS011;28407;51.830;5.684;2023-02-23T04:30:37;33.55;;;23.00;;
42754;SDS011;28407;51.830;5.684;2023-02-23T04:32:38;37.50;;;22.73;;
42754;SDS011;28407;51.830;5.684;2023-02-23T04:34:39;34.40;;;22.60;;
42754;SDS011;28407;51.830;5.684;2023-02-23T04:36:39;34.10;;;20.65;;
42754;SDS011;28407;51.830;5.684;2023-02-23T04:38:40;33.10;;;19.77;;
42754;SDS011;28407;51.830;5.684;2023-02-23T04:40:40;35.92;;;22.48;;
42754;SDS011;28407;51.830;5.684;2023-02-23T04:42:41;36.72;;;23.70;;
42754;SDS011;28407;51.830;5.684;2023-02-23T04:44:42;35.20;;;23.17;;
42754;SDS011;28407;51.830;5.684;2023-02-23T04:46:43;32.77;;;21.43;;
42754;SDS011;28407;51.830;5.684;2023-02-23T04:48:44;35.58;;;22.63;;
42754;SDS011;28407;51.830;5.684;2023-02-23T04:50:44;37.35;;;23.45;;
42754;SDS011;28407;51.830;5.684;2023-02-23T04:52:45;36.33;;;23.00;;
42754;SDS011;28407;51.830;5.684;2023-02-23T04:54:46;35.77;;;23.70;;
42754;SDS011;28407;51.830;5.684;2023-02-23T04:56:47;37.90;;;23.60;;
42754;SDS011;28407;51.830;5.684;2023-02-23T04:58:47;31.23;;;20.80;;
42754;SDS011;28407;51.830;5.684;2023-02-23T05:00:48;35.85;;;22.50;;
42754;SDS011;28407;51.830;5.684;2023-02-23T05:02:49;33.70;;;21.80;;
42754;SDS011;28407;51.830;5.684;2023-02-23T05:04:50;31.73;;;21.83;;
42754;SDS011;28407;51.830;5.684;2023-02-23T05:06:51;31.45;;;21.35;;
42754;SDS011;28407;51.830;5.684;2023-02-23T05:08:52;33.97;;;20.55;;
42754;SDS011;28407;51.830;5.684;2023-02-23T05:10:52;33.05;;;20.48;;
42754;SDS011;28407;51.830;5.684;2023-02-23T05:12:53;37.00;;;22.60;;
42754;SDS011;28407;51.830;5.684;2023-02-23T05:14:54;33.45;;;22.75;;
42754;SDS011;28407;51.830;5.684;2023-02-23T05:16:54;33.20;;;20.48;;
42754;SDS011;28407;51.830;5.684;2023-02-23T05:18:55;33.75;;;21.83;;
42754;SDS011;28407;51.830;5.684;2023-02-23T05:21:06;34.33;;;21.05;;
42754;SDS011;28407;51.830;5.684;2023-02-23T05:23:07;34.20;;;22.17;;
42754;SDS011;28407;51.830;5.684;2023-02-23T05:25:08;35.20;;;21.48;;
42754;SDS011;28407;51.830;5.684;2023-02-23T05:27:09;31.05;;;21.55;;
42754;SDS011;28407;51.830;5.684;2023-02-23T05:29:10;32.60;;;21.17;;
42754;SDS011;28407;51.830;5.684;2023-02-23T05:31:11;31.85;;;20.23;;
42754;SDS011;28407;51.830;5.684;2023-02-23T05:33:12;31.08;;;19.67;;
42754;SDS011;28407;51.830;5.684;2023-02-23T05:35:13;31.85;;;21.55;;
42754;SDS011;28407;51.830;5.684;2023-02-23T05:37:13;36.65;;;22.10;;
42754;SDS011;28407;51.830;5.684;2023-02-23T05:39:14;34.50;;;21.63;;
42754;SDS011;28407;51.830;5.684;2023-02-23T05:41:16;32.85;;;20.25;;
42754;SDS011;28407;51.830;5.684;2023-02-23T05:43:19;34.60;;;24.70;;
42754;SDS011;28407;51.830;5.684;2023-02-23T05:45:20;30.45;;;21.85;;
42754;SDS011;28407;51.830;5.684;2023-02-23T05:47:20;31.08;;;21.50;;
42754;SDS011;28407;51.830;5.684;2023-02-23T05:49:21;35.22;;;20.65;;
42754;SDS011;28407;51.830;5.684;2023-02-23T05:51:22;31.67;;;21.98;;
42754;SDS011;28407;51.830;5.684;2023-02-23T05:53:23;30.92;;;18.85;;
42754;SDS011;28407;51.830;5.684;2023-02-23T05:55:23;34.08;;;21.08;;
42754;SDS011;28407;51.830;5.684;2023-02-23T05:57:24;32.55;;;22.08;;
42754;SDS011;28407;51.830;5.684;2023-02-23T05:59:26;34.33;;;20.17;;
42754;SDS011;28407;51.830;5.684;2023-02-23T06:01:26;31.40;;;20.10;;
42754;SDS011;28407;51.830;5.684;2023-02-23T06:03:27;31.83;;;19.42;;
42754;SDS011;28407;51.830;5.684;2023-02-23T06:05:28;30.08;;;20.23;;
42754;SDS011;28407;51.830;5.684;2023-02-23T06:07:29;30.63;;;20.52;;
42754;SDS011;28407;51.830;5.684;2023-02-23T06:09:30;31.67;;;20.67;;
42754;SDS011;28407;51.830;5.684;2023-02-23T06:11:30;33.83;;;20.70;;
42754;SDS011;28407;51.830;5.684;2023-02-23T06:13:31;31.83;;;20.63;;
42754;SDS011;28407;51.830;5.684;2023-02-23T06:15:32;29.10;;;19.65;;
42754;SDS011;28407;51.830;5.684;2023-02-23T06:17:32;30.70;;;20.63;;
42754;SDS011;28407;51.830;5.684;2023-02-23T06:19:33;30.63;;;21.02;;
42754;SDS011;28407;51.830;5.684;2023-02-23T06:21:33;31.35;;;19.67;;
42754;SDS011;28407;51.830;5.684;2023-02-23T06:23:34;31.38;;;20.65;;
42754;SDS011;28407;51.830;5.684;2023-02-23T06:25:35;32.60;;;19.20;;
42754;SDS011;28407;51.830;5.684;2023-02-23T06:27:35;30.88;;;19.02;;
42754;SDS011;28407;51.830;5.684;2023-02-23T06:29:36;32.55;;;20.45;;
42754;SDS011;28407;51.830;5.684;2023-02-23T06:31:37;31.70;;;20.02;;
42754;SDS011;28407;51.830;5.684;2023-02-23T06:33:38;28.60;;;18.17;;
42754;SDS011;28407;51.830;5.684;2023-02-23T06:35:38;30.15;;;19.88;;
42754;SDS011;28407;51.830;5.684;2023-02-23T06:37:39;29.60;;;18.70;;
42754;SDS011;28407;51.830;5.684;2023-02-23T06:39:40;27.58;;;18.17;;
42754;SDS011;28407;51.830;5.684;2023-02-23T06:41:40;32.38;;;20.02;;
42754;SDS011;28407;51.830;5.684;2023-02-23T06:43:41;27.27;;;19.52;;
42754;SDS011;28407;51.830;5.684;2023-02-23T06:45:41;28.17;;;18.48;;
42754;SDS011;28407;51.830;5.684;2023-02-23T06:47:42;32.35;;;22.17;;
42754;SDS011;28407;51.830;5.684;2023-02-23T06:49:43;26.90;;;18.90;;
42754;SDS011;28407;51.830;5.684;2023-02-23T06:51:45;27.15;;;18.27;;
42754;SDS011;28407;51.830;5.684;2023-02-23T06:53:46;29.10;;;20.42;;
42754;SDS011;28407;51.830;5.684;2023-02-23T06:55:47;27.98;;;19.27;;
42754;SDS011;28407;51.830;5.684;2023-02-23T06:57:48;28.90;;;19.48;;
42754;SDS011;28407;51.830;5.684;2023-02-23T06:59:50;29.52;;;18.52;;
42754;SDS011;28407;51.830;5.684;2023-02-23T07:01:52;28.77;;;18.05;;
42754;SDS011;28407;51.830;5.684;2023-02-23T07:03:52;26.63;;;17.52;;
42754;SDS011;28407;51.830;5.684;2023-02-23T07:05:53;23.88;;;16.38;;
42754;SDS011;28407;51.830;5.684;2023-02-23T07:07:53;25.67;;;15.85;;
42754;SDS011;28407;51.830;5.684;2023-02-23T07:09:54;26.65;;;17.30;;
42754;SDS011;28407;51.830;5.684;2023-02-23T07:11:55;29.08;;;17.45;;
42754;SDS011;28407;51.830;5.684;2023-02-23T07:13:58;28.25;;;17.67;;
42754;SDS011;28407;51.830;5.684;2023-02-23T07:16:00;29.98;;;18.70;;
42754;SDS011;28407;51.830;5.684;2023-02-23T07:18:01;26.27;;;18.00;;
42754;SDS011;28407;51.830;5.684;2023-02-23T07:20:02;24.40;;;17.27;;
42754;SDS011;28407;51.830;5.684;2023-02-23T07:22:03;32.15;;;18.80;;
42754;SDS011;28407;51.830;5.684;2023-02-23T07:24:05;26.83;;;17.50;;
42754;SDS011;28407;51.830;5.684;2023-02-23T07:26:05;25.60;;;16.92;;
42754;SDS011;28407;51.830;5.684;2023-02-23T07:28:06;27.35;;;16.88;;
42754;SDS011;28407;51.830;5.684;2023-02-23T07:30:07;24.17;;;15.57;;
42754;SDS011;28407;51.830;5.684;2023-02-23T07:32:08;28.20;;;17.23;;
42754;SDS011;28407;51.830;5.684;2023-02-23T07:34:09;27.02;;;19.08;;
42754;SDS011;28407;51.830;5.684;2023-02-23T07:36:10;24.75;;;15.80;;
42754;SDS011;28407;51.830;5.684;2023-02-23T07:38:10;25.70;;;17.15;;
42754;SDS011;28407;51.830;5.684;2023-02-23T07:40:12;26.25;;;18.40;;
42754;SDS011;28407;51.830;5.684;2023-02-23T07:42:14;26.20;;;16.35;;
42754;SDS011;28407;51.830;5.684;2023-02-23T07:44:15;26.27;;;18.58;;
42754;SDS011;28407;51.830;5.684;2023-02-23T07:46:16;30.50;;;19.30;;
42754;SDS011;28407;51.830;5.684;2023-02-23T07:48:17;24.80;;;16.77;;
42754;SDS011;28407;51.830;5.684;2023-02-23T07:50:18;25.75;;;17.42;;
42754;SDS011;28407;51.830;5.684;2023-02-23T07:52:19;26.33;;;18.25;;
42754;SDS011;28407;51.830;5.684;2023-02-23T07:54:19;24.58;;;14.73;;
42754;SDS011;28407;51.830;5.684;2023-02-23T07:56:21;25.80;;;18.17;;
42754;SDS011;28407;51.830;5.684;2023-02-23T07:58:21;28.88;;;17.95;;
42754;SDS011;28407;51.830;5.684;2023-02-23T08:00:22;27.35;;;17.13;;
42754;SDS011;28407;51.830;5.684;2023-02-23T08:02:24;28.77;;;18.10;;
42754;SDS011;28407;51.830;5.684;2023-02-23T08:04:24;27.83;;;17.80;;
42754;SDS011;28407;51.830;5.684;2023-02-23T08:06:25;24.65;;;17.83;;
42754;SDS011;28407;51.830;5.684;2023-02-23T08:08:26;26.85;;;16.60;;
42754;SDS011;28407;51.830;5.684;2023-02-23T08:10:27;23.37;;;15.37;;
42754;SDS011;28407;51.830;5.684;2023-02-23T08:12:27;23.58;;;14.73;;
42754;SDS011;28407;51.830;5.684;2023-02-23T08:14:28;27.45;;;17.05;;
42754;SDS011;28407;51.830;5.684;2023-02-23T08:16:29;27.27;;;16.48;;
42754;SDS011;28407;51.830;5.684;2023-02-23T08:18:31;23.92;;;15.23;;
42754;SDS011;28407;51.830;5.684;2023-02-23T08:20:32;26.25;;;18.20;;
42754;SDS011;28407;51.830;5.684;2023-02-23T08:22:32;26.05;;;17.10;;
42754;SDS011;28407;51.830;5.684;2023-02-23T08:24:33;26.70;;;16.40;;
42754;SDS011;28407;51.830;5.684;2023-02-23T08:26:34;26.73;;;18.13;;
42754;SDS011;28407;51.830;5.684;2023-02-23T08:28:37;25.05;;;16.75;;
42754;SDS011;28407;51.830;5.684;2023-02-23T08:30:39;26.70;;;17.33;;
42754;SDS011;28407;51.830;5.684;2023-02-23T08:32:40;24.38;;;15.88;;
42754;SDS011;28407;51.830;5.684;2023-02-23T08:34:41;25.00;;;16.38;;
42754;SDS011;28407;51.830;5.684;2023-02-23T08:38:44;27.38;;;17.45;;
42754;SDS011;28407;51.830;5.684;2023-02-23T08:40:44;26.80;;;17.80;;
42754;SDS011;28407;51.830;5.684;2023-02-23T08:42:46;25.13;;;15.68;;
42754;SDS011;28407;51.830;5.684;2023-02-23T08:44:51;25.38;;;16.05;;
42754;SDS011;28407;51.830;5.684;2023-02-23T08:46:51;24.52;;;15.65;;
42754;SDS011;28407;51.830;5.684;2023-02-23T08:48:54;22.90;;;16.63;;
42754;SDS011;28407;51.830;5.684;2023-02-23T08:52:56;21.55;;;14.65;;
42754;SDS011;28407;51.830;5.684;2023-02-23T08:54:56;23.42;;;15.82;;
42754;SDS011;28407;51.830;5.684;2023-02-23T08:56:57;27.55;;;17.88;;
42754;SDS011;28407;51.830;5.684;2023-02-23T08:58:58;26.52;;;17.42;;
42754;SDS011;28407;51.830;5.684;2023-02-23T09:00:59;24.35;;;16.48;;
42754;SDS011;28407;51.830;5.684;2023-02-23T09:03:00;27.53;;;18.20;;
42754;SDS011;28407;51.830;5.684;2023-02-23T09:05:00;27.13;;;17.52;;
42754;SDS011;28407;51.830;5.684;2023-02-23T09:07:01;24.98;;;16.58;;
42754;SDS011;28407;51.830;5.684;2023-02-23T09:09:03;27.98;;;17.95;;
42754;SDS011;28407;51.830;5.684;2023-02-23T09:11:04;26.80;;;17.58;;
42754;SDS011;28407;51.830;5.684;2023-02-23T09:13:05;27.77;;;18.43;;
42754;SDS011;28407;51.830;5.684;2023-02-23T09:15:06;27.50;;;16.50;;
42754;SDS011;28407;51.830;5.684;2023-02-23T09:17:07;29.17;;;18.40;;
42754;SDS011;28407;51.830;5.684;2023-02-23T09:19:08;26.17;;;17.30;;
42754;SDS011;28407;51.830;5.684;2023-02-23T09:21:12;24.63;;;17.08;;
42754;SDS011;28407;51.830;5.684;2023-02-23T09:23:21;26.02;;;17.00;;
42754;SDS011;28407;51.830;5.684;2023-02-23T09:25:23;26.67;;;17.60;;
42754;SDS011;28407;51.830;5.684;2023-02-23T09:27:23;26.55;;;16.83;;
42754;SDS011;28407;51.830;5.684;2023-02-23T09:29:24;27.13;;;18.00;;
42754;SDS011;28407;51.830;5.684;2023-02-23T09:31:25;28.98;;;18.85;;
42754;SDS011;28407;51.830;5.684;2023-02-23T09:33:25;27.55;;;18.10;;
42754;SDS011;28407;51.830;5.684;2023-02-23T09:35:27;28.58;;;19.08;;
42754;SDS011;28407;51.830;5.684;2023-02-23T09:37:28;27.35;;;18.30;;
42754;SDS011;28407;51.830;5.684;2023-02-23T09:39:28;30.55;;;18.50;;
42754;SDS011;28407;51.830;5.684;2023-02-23T09:43:49;25.20;;;16.65;;
42754;SDS011;28407;51.830;5.684;2023-02-23T09:46:07;29.55;;;19.23;;
42754;SDS011;28407;51.830;5.684;2023-02-23T09:48:29;25.92;;;16.92;;
42754;SDS011;28407;51.830;5.684;2023-02-23T09:50:30;23.98;;;16.73;;
42754;SDS011;28407;51.830;5.684;2023-02-23T09:52:35;26.60;;;16.83;;
42754;SDS011;28407;51.830;5.684;2023-02-23T09:54:41;27.67;;;17.73;;
42754;SDS011;28407;51.830;5.684;2023-02-23T09:56:42;27.85;;;17.90;;
42754;SDS011;28407;51.830;5.684;2023-02-23T09:58:45;29.23;;;19.50;;
42754;SDS011;28407;51.830;5.684;2023-02-23T10:00:48;26.40;;;17.75;;
42754;SDS011;28407;51.830;5.684;2023-02-23T10:05:09;28.92;;;19.42;;
42754;SDS011;28407;51.830;5.684;2023-02-23T10:07:20;28.85;;;18.27;;
42754;SDS011;28407;51.830;5.684;2023-02-23T10:11:59;30.88;;;18.30;;
42754;SDS011;28407;51.830;5.684;2023-02-23T10:16:34;30.00;;;18.33;;
42754;SDS011;28407;51.830;5.684;2023-02-23T10:18:50;26.10;;;18.88;;
42754;SDS011;28407;51.830;5.684;2023-02-23T10:21:04;29.63;;;19.55;;
42754;SDS011;28407;51.830;5.684;2023-02-23T10:23:35;30.15;;;19.50;;
42754;SDS011;28407;51.830;5.684;2023-02-23T10:25:59;28.92;;;16.88;;
42754;SDS011;28407;51.830;5.684;2023-02-23T10:30:02;23.80;;;15.43;;
42754;SDS011;28407;51.830;5.684;2023-02-23T10:34:28;26.65;;;17.00;;
42754;SDS011;28407;51.830;5.684;2023-02-23T10:36:36;26.08;;;18.13;;
42754;SDS011;28407;51.830;5.684;2023-02-23T10:39:04;28.05;;;18.08;;
42754;SDS011;28407;51.830;5.684;2023-02-23T10:41:07;25.38;;;16.35;;
42754;SDS011;28407;51.830;5.684;2023-02-23T10:43:10;25.90;;;17.83;;
42754;SDS011;28407;51.830;5.684;2023-02-23T10:45:13;28.35;;;18.88;;
42754;SDS011;28407;51.830;5.684;2023-02-23T10:47:23;23.20;;;15.38;;
42754;SDS011;28407;51.830;5.684;2023-02-23T10:49:31;29.10;;;17.05;;
42754;SDS011;28407;51.830;5.684;2023-02-23T10:51:39;26.35;;;16.20;;
42754;SDS011;28407;51.830;5.684;2023-02-23T10:53:41;31.95;;;18.08;;
42754;SDS011;28407;51.830;5.684;2023-02-23T10:55:43;27.63;;;18.30;;
42754;SDS011;28407;51.830;5.684;2023-02-23T11:02:26;26.63;;;16.25;;
42754;SDS011;28407;51.830;5.684;2023-02-23T11:04:30;28.25;;;17.88;;
42754;SDS011;28407;51.830;5.684;2023-02-23T11:06:36;25.98;;;16.20;;
42754;SDS011;28407;51.830;5.684;2023-02-23T11:08:38;26.40;;;16.45;;
42754;SDS011;28407;51.830;5.684;2023-02-23T11:10:40;24.25;;;16.60;;
42754;SDS011;28407;51.830;5.684;2023-02-23T11:12:43;25.88;;;15.85;;
42754;SDS011;28407;51.830;5.684;2023-02-23T11:14:44;26.88;;;15.35;;
42754;SDS011;28407;51.830;5.684;2023-02-23T11:16:44;26.55;;;16.50;;
42754;SDS011;28407;51.830;5.684;2023-02-23T11:18:55;23.98;;;16.38;;
42754;SDS011;28407;51.830;5.684;2023-02-23T11:20:58;28.83;;;18.17;;
42754;SDS011;28407;51.830;5.684;2023-02-23T11:22:58;26.05;;;16.55;;
42754;SDS011;28407;51.830;5.684;2023-02-23T11:24:59;24.80;;;14.82;;
42754;SDS011;28407;51.830;5.684;2023-02-23T11:27:04;22.13;;;13.77;;
42754;SDS011;28407;51.830;5.684;2023-02-23T11:31:29;19.77;;;12.57;;
42754;SDS011;28407;51.830;5.684;2023-02-23T11:33:33;25.35;;;15.48;;
42754;SDS011;28407;51.830;5.684;2023-02-23T11:35:35;21.73;;;13.95;;
42754;SDS011;28407;51.830;5.684;2023-02-23T11:37:37;23.27;;;14.27;;
42754;SDS011;28407;51.830;5.684;2023-02-23T11:39:41;22.58;;;13.57;;
42754;SDS011;28407;51.830;5.684;2023-02-23T11:44:19;19.15;;;11.18;;
42754;SDS011;28407;51.830;5.684;2023-02-23T11:46:21;19.90;;;12.60;;
42754;SDS011;28407;51.830;5.684;2023-02-23T11:48:25;18.88;;;12.38;;
42754;SDS011;28407;51.830;5.684;2023-02-23T11:52:31;19.05;;;12.90;;
42754;SDS011;28407;51.830;5.684;2023-02-23T11:54:33;21.48;;;13.43;;
42754;SDS011;28407;51.830;5.684;2023-02-23T11:56:34;20.23;;;12.75;;
42754;SDS011;28407;51.830;5.684;2023-02-23T12:00:44;18.60;;;11.93;;
42754;SDS011;28407;51.830;5.684;2023-02-23T12:02:58;17.95;;;13.23;;
42754;SDS011;28407;51.830;5.684;2023-02-23T12:07:17;16.40;;;10.85;;
42754;SDS011;28407;51.830;5.684;2023-02-23T12:09:25;18.00;;;12.10;;
42754;SDS011;28407;51.830;5.684;2023-02-23T12:11:31;17.75;;;12.32;;
42754;SDS011;28407;51.830;5.684;2023-02-23T12:17:49;19.17;;;10.88;;
42754;SDS011;28407;51.830;5.684;2023-02-23T12:20:02;16.40;;;11.40;;
42754;SDS011;28407;51.830;5.684;2023-02-23T12:22:10;18.90;;;11.43;;
42754;SDS011;28407;51.830;5.684;2023-02-23T12:26:45;18.98;;;13.18;;
42754;SDS011;28407;51.830;5.684;2023-02-23T12:29:04;18.50;;;12.30;;
42754;SDS011;28407;51.830;5.684;2023-02-23T12:31:27;19.08;;;13.38;;
42754;SDS011;28407;51.830;5.684;2023-02-23T12:33:48;17.08;;;10.23;;
42754;SDS011;28407;51.830;5.684;2023-02-23T12:35:55;19.08;;;12.13;;
42754;SDS011;28407;51.830;5.684;2023-02-23T12:40:18;18.40;;;12.57;;
42754;SDS011;28407;51.830;5.684;2023-02-23T12:42:38;18.20;;;11.57;;
42754;SDS011;28407;51.830;5.684;2023-02-23T12:44:52;13.68;;;9.57;;
42754;SDS011;28407;51.830;5.684;2023-02-23T12:47:03;17.08;;;10.63;;
42754;SDS011;28407;51.830;5.684;2023-02-23T12:49:26;16.45;;;10.50;;
42754;SDS011;28407;51.830;5.684;2023-02-23T12:51:45;18.90;;;11.80;;
42754;SDS011;28407;51.830;5.684;2023-02-23T12:53:52;16.15;;;10.57;;
42754;SDS011;28407;51.830;5.684;2023-02-23T12:55:56;16.00;;;8.95;;
42754;SDS011;28407;51.830;5.684;2023-02-23T13:00:34;13.98;;;9.45;;
42754;SDS011;28407;51.830;5.684;2023-02-23T13:02:40;19.65;;;10.85;;
42754;SDS011;28407;51.830;5.684;2023-02-23T13:05:09;13.85;;;8.98;;
42754;SDS011;28407;51.830;5.684;2023-02-23T13:09:54;15.57;;;10.32;;
42754;SDS011;28407;51.830;5.684;2023-02-23T13:12:06;13.82;;;8.63;;
42754;SDS011;28407;51.830;5.684;2023-02-23T13:14:34;12.10;;;8.55;;
42754;SDS011;28407;51.830;5.684;2023-02-23T13:16:51;14.40;;;9.00;;
42754;SDS011;28407;51.830;5.684;2023-02-23T13:19:12;13.10;;;8.23;;
42754;SDS011;28407;51.830;5.684;2023-02-23T13:21:25;10.30;;;6.93;;
42754;SDS011;28407;51.830;5.684;2023-02-23T13:24:07;9.52;;;7.45;;
42754;SDS011;28407;51.830;5.684;2023-02-23T13:26:25;8.40;;;6.07;;
42754;SDS011;28407;51.830;5.684;2023-02-23T13:28:48;9.00;;;5.93;;
42754;SDS011;28407;51.830;5.684;2023-02-23T13:33:04;8.77;;;5.47;;
42754;SDS011;28407;51.830;5.684;2023-02-23T13:35:14;6.35;;;4.65;;
42754;SDS011;28407;51.830;5.684;2023-02-23T13:37:25;7.68;;;5.72;;
42754;SDS011;28407;51.830;5.684;2023-02-23T13:46:44;9.25;;;6.03;;
42754;SDS011;28407;51.830;5.684;2023-02-23T13:49:04;8.93;;;5.90;;